Terminal Aerodrome Forecast
Issued by NWS Twin Cities, MN

Home | Current Version | Previous Version | Text Only | Print | Product List | Glossary Off
Versions: 1 2 3 4 5 6 7 8 9 10 11 12 13 14 15 16

478
FTUS43 KMPX 051120
TAFSTC
TAF
KSTC 051120Z 0512/0612 15006KT P6SM OVC120
     FM051600 18007KT P6SM OVC050
     FM051800 20007KT 6SM -SN BR OVC035
      TEMPO 0518/0522 3SM -SN OVC020
     FM060000 24005KT P6SM BKN022
     FM060300 26005KT P6SM BKN050=

USA.gov is the U.S. government's official web portal to all federal, state and local government web resources and services.